createdAt,value
2019-06-07T00:02:19.258Z,15.80
2019-06-07T00:04:49.157Z,15.80
2019-06-07T00:07:21.858Z,15.70
2019-06-07T00:09:50.477Z,15.70
2019-06-07T00:12:21.562Z,15.60
2019-06-07T00:14:51.656Z,15.60
2019-06-07T00:17:21.450Z,15.70
2019-06-07T00:19:51.202Z,15.70
2019-06-07T00:22:32.252Z,15.70
2019-06-07T00:24:52.835Z,15.70
2019-06-07T00:27:22.785Z,15.70
2019-06-07T00:29:52.582Z,15.70
2019-06-07T00:32:22.617Z,15.60
2019-06-07T00:34:52.351Z,15.60
2019-06-07T00:37:25.201Z,15.50
2019-06-07T00:40:12.701Z,15.60
2019-06-07T00:42:24.883Z,15.60
2019-06-07T00:44:54.940Z,15.70
2019-06-07T00:47:25.795Z,15.70
2019-06-07T00:49:55.716Z,15.60
2019-06-07T00:54:57.475Z,15.60
2019-06-07T00:57:27.109Z,15.70
2019-06-07T00:59:56.842Z,15.60
2019-06-07T01:02:31.203Z,15.60
2019-06-07T01:04:57.859Z,15.60
2019-06-07T01:07:27.626Z,15.50
2019-06-07T01:09:57.398Z,15.50
2019-06-07T01:12:27.312Z,15.50
2019-06-07T01:14:57.350Z,15.40
2019-06-07T01:17:41.140Z,15.40
2019-06-07T01:20:01.320Z,15.40
2019-06-07T01:22:30.966Z,15.40
2019-06-07T01:25:00.664Z,15.40
2019-06-07T01:27:30.380Z,15.30
2019-06-07T01:30:00.115Z,15.40
2019-06-07T01:32:31.789Z,15.40
2019-06-07T01:35:01.447Z,15.40
2019-06-07T01:37:31.198Z,15.40
2019-06-07T01:40:00.848Z,15.30
2019-06-07T01:42:31.044Z,15.30
2019-06-07T01:45:00.837Z,15.30
2019-06-07T01:47:32.202Z,15.40
2019-06-07T01:50:02.173Z,15.40
2019-06-07T01:52:31.844Z,15.40
2019-06-07T01:55:01.538Z,15.30
2019-06-07T01:57:45.410Z,15.30
2019-06-07T02:00:02.945Z,15.30
2019-06-07T02:02:32.586Z,15.30
2019-06-07T02:05:02.379Z,15.30
2019-06-07T02:07:33.165Z,15.20
2019-06-07T02:10:04.085Z,15.20
2019-06-07T02:12:42.318Z,15.10
2019-06-07T02:15:07.649Z,15.00
2019-06-07T02:17:38.705Z,15.00
2019-06-07T02:20:08.933Z,14.90
2019-06-07T02:22:39.370Z,14.80
2019-06-07T02:27:41.795Z,14.80
2019-06-07T02:32:43.075Z,14.80
2019-06-07T02:35:14.314Z,14.90
2019-06-07T02:37:43.972Z,14.90
2019-06-07T02:40:15.208Z,14.90
2019-06-07T02:42:44.945Z,14.90
2019-06-07T02:45:14.790Z,14.90
2019-06-07T02:47:46.089Z,14.90
2019-06-07T02:50:16.303Z,15.00
2019-06-07T02:52:46.012Z,15.00
2019-06-07T02:55:15.915Z,15.00
2019-06-07T02:57:46.240Z,14.90
2019-06-07T03:01:00.561Z,14.90
2019-06-07T03:03:08.199Z,14.90
2019-06-07T03:05:40.939Z,14.90
2019-06-07T03:08:12.382Z,14.90
2019-06-07T03:10:47.651Z,15.00
2019-06-07T03:13:20.361Z,15.00
2019-06-07T03:15:55.765Z,15.00
2019-06-07T03:18:43.141Z,15.00
2019-06-07T03:21:20.172Z,15.00
2019-06-07T03:23:55.571Z,15.10
2019-06-07T03:26:30.356Z,15.10
2019-06-07T03:29:00.288Z,15.10
2019-06-07T03:31:35.271Z,15.10
2019-06-07T03:34:01.353Z,15.10
2019-06-07T03:36:32.145Z,15.10
2019-06-07T03:39:02.241Z,15.00
2019-06-07T03:41:40.052Z,15.00
2019-06-07T03:44:03.539Z,15.10
2019-06-07T03:46:36.215Z,15.10
2019-06-07T03:49:04.698Z,15.00
2019-06-07T03:51:39.074Z,15.20
2019-06-07T03:54:06.414Z,15.20
2019-06-07T03:56:38.633Z,15.30
2019-06-07T03:59:07.749Z,15.20
2019-06-07T04:01:39.832Z,15.20
2019-06-07T04:04:09.321Z,15.20
2019-06-07T04:06:42.147Z,15.20
2019-06-07T04:09:10.604Z,15.10
2019-06-07T04:11:40.871Z,15.00
2019-06-07T04:14:10.749Z,15.00
2019-06-07T04:16:44.407Z,15.00
2019-06-07T04:19:12.215Z,15.00
2019-06-07T04:21:42.969Z,15.10
2019-06-07T04:24:13.201Z,15.10
2019-06-07T04:26:46.339Z,15.10
2019-06-07T04:31:45.947Z,15.20
2019-06-07T04:34:15.694Z,15.20
2019-06-07T04:36:58.569Z,15.20
2019-06-07T04:39:19.349Z,15.20
2019-06-07T04:41:50.947Z,15.20
2019-06-07T04:44:21.841Z,15.10
2019-06-07T04:46:51.994Z,15.20
2019-06-07T04:49:23.787Z,15.20
2019-06-07T04:51:55.922Z,15.20
2019-06-07T04:54:26.011Z,15.30
2019-06-07T04:56:56.022Z,15.30
2019-06-07T05:00:04.135Z,15.30
2019-06-07T05:01:57.254Z,15.30
2019-06-07T05:04:27.037Z,15.30
2019-06-07T05:06:56.993Z,15.30
2019-06-07T05:09:29.985Z,15.20
2019-06-07T05:11:59.854Z,15.10
2019-06-07T05:14:32.520Z,15.20
2019-06-07T05:17:02.027Z,15.30
2019-06-07T05:19:35.272Z,15.40
2019-06-07T05:22:05.069Z,15.40
2019-06-07T05:24:38.379Z,15.40
2019-06-07T05:27:06.661Z,15.40
2019-06-07T05:29:37.221Z,15.30
2019-06-07T05:32:08.360Z,15.30
2019-06-07T05:34:41.844Z,15.30
2019-06-07T05:37:12.052Z,15.30
2019-06-07T05:39:45.622Z,15.30
2019-06-07T05:42:12.577Z,15.30
2019-06-07T05:44:44.078Z,15.40
2019-06-07T05:47:22.659Z,15.40
2019-06-07T05:49:49.916Z,15.30
2019-06-07T05:52:19.668Z,15.30
2019-06-07T05:54:52.603Z,15.30
2019-06-07T05:57:25.733Z,15.40
2019-06-07T05:59:56.023Z,15.60
2019-06-07T06:02:28.810Z,15.70
2019-06-07T06:04:58.709Z,15.70
2019-06-07T06:07:29.257Z,15.70
2019-06-07T06:09:59.003Z,15.70
2019-06-07T06:12:35.495Z,15.70
2019-06-07T06:15:02.091Z,15.70
2019-06-07T06:17:31.773Z,15.80
2019-06-07T06:20:01.602Z,15.80
2019-06-07T06:22:31.252Z,15.90
2019-06-07T06:25:30.614Z,15.90
2019-06-07T06:30:06.798Z,16.10
2019-06-07T06:32:43.005Z,16.20
2019-06-07T06:35:11.711Z,16.30
2019-06-07T06:37:46.272Z,16.40
2019-06-07T06:40:15.637Z,16.40
2019-06-07T06:42:48.566Z,16.50
2019-06-07T06:45:17.651Z,16.50
2019-06-07T06:47:51.787Z,16.50
2019-06-07T06:50:22.176Z,16.40
2019-06-07T06:52:54.700Z,16.40
2019-06-07T06:55:23.451Z,16.40
2019-06-07T06:57:53.173Z,16.40
2019-06-07T07:00:46.400Z,16.40
2019-06-07T07:03:47.664Z,16.40
2019-06-07T07:05:40.726Z,16.40
2019-06-07T07:08:10.938Z,16.40
2019-06-07T07:10:46.156Z,16.40
2019-06-07T07:13:17.221Z,16.40
2019-06-07T07:15:55.247Z,16.40
2019-06-07T07:18:21.535Z,16.60
2019-06-07T07:20:55.735Z,16.60
2019-06-07T07:23:23.057Z,16.60
2019-06-07T07:25:58.921Z,16.70
2019-06-07T07:28:24.500Z,16.70
2019-06-07T07:30:57.187Z,16.70
2019-06-07T07:34:19.783Z,16.70
2019-06-07T07:38:30.041Z,16.80
2019-06-07T07:41:15.330Z,16.90
2019-06-07T07:43:32.175Z,16.80
2019-06-07T07:46:28.468Z,16.80
2019-06-07T07:48:44.325Z,16.70
2019-06-07T07:51:14.130Z,16.60
2019-06-07T07:53:54.302Z,16.60
2019-06-07T07:56:16.243Z,16.50
2019-06-07T07:58:50.120Z,16.60
2019-06-07T08:01:20.458Z,16.80
2019-06-07T08:03:50.677Z,16.90
2019-06-07T08:06:31.410Z,17.00
2019-06-07T08:09:01.406Z,17.10
2019-06-07T08:11:31.286Z,17.20
2019-06-07T08:14:01.029Z,17.30
2019-06-07T08:16:31.123Z,17.50
2019-06-07T08:19:03.884Z,17.60
2019-06-07T08:21:47.540Z,17.70
2019-06-07T08:24:17.177Z,17.90
2019-06-07T08:27:15.984Z,18.00
2019-06-07T08:29:19.145Z,17.90
2019-06-07T08:31:52.888Z,17.90
2019-06-07T08:34:20.936Z,17.60
2019-06-07T08:36:52.259Z,17.40
2019-06-07T08:39:23.422Z,17.50
2019-06-07T08:42:14.368Z,17.70
2019-06-07T08:44:26.683Z,17.80
2019-06-07T08:47:18.498Z,17.90
2019-06-07T08:49:30.073Z,18.10
2019-06-07T08:52:09.967Z,18.10
2019-06-07T08:54:35.742Z,18.20
2019-06-07T08:57:20.604Z,18.30
2019-06-07T08:59:44.145Z,18.40
2019-06-07T09:02:23.806Z,18.40
2019-06-07T09:04:48.762Z,18.40
2019-06-07T09:07:22.091Z,18.40
2019-06-07T09:10:03.151Z,18.40
2019-06-07T09:12:32.451Z,18.40
2019-06-07T09:15:14.797Z,18.40
2019-06-07T09:17:34.225Z,18.30
2019-06-07T09:20:33.704Z,18.30
2019-06-07T09:22:41.002Z,18.30
2019-06-07T09:25:20.735Z,18.40
2019-06-07T09:27:43.330Z,18.30
2019-06-07T09:30:18.944Z,18.30
2019-06-07T09:32:48.089Z,18.20
